createdAt,value
2022-12-08T00:02:08.722Z,26.25
2022-12-08T00:04:35.447Z,19.52
2022-12-08T00:07:01.947Z,22.95
2022-12-08T00:09:39.909Z,23.70
2022-12-08T00:12:15.877Z,20.35
2022-12-08T00:14:45.594Z,23.85
2022-12-08T00:17:13.865Z,22.65
2022-12-08T00:19:42.830Z,22.90
2022-12-08T00:22:10.913Z,21.52
2022-12-08T00:24:39.138Z,20.98
2022-12-08T00:27:07.155Z,21.23
2022-12-08T00:29:33.632Z,21.55
2022-12-08T00:32:00.239Z,20.23
2022-12-08T00:34:26.875Z,21.20
2022-12-08T00:36:53.361Z,22.92
2022-12-08T00:39:20.296Z,21.00
2022-12-08T00:41:46.914Z,20.27
2022-12-08T00:44:16.003Z,21.23
2022-12-08T00:46:42.801Z,23.27
2022-12-08T00:49:09.350Z,18.35
2022-12-08T00:51:36.596Z,21.63
2022-12-08T00:54:04.123Z,24.45
2022-12-08T00:56:30.838Z,20.75
2022-12-08T00:58:57.346Z,22.00
2022-12-08T01:01:24.241Z,21.15
2022-12-08T01:03:51.121Z,20.35
2022-12-08T01:06:17.734Z,20.67
2022-12-08T01:08:44.540Z,24.13
2022-12-08T01:11:13.621Z,22.10
2022-12-08T01:13:40.161Z,24.40
2022-12-08T01:16:07.290Z,24.42
2022-12-08T01:18:34.133Z,22.75
2022-12-08T01:21:08.094Z,23.77
2022-12-08T01:23:35.594Z,23.27
2022-12-08T01:26:07.814Z,23.23
2022-12-08T01:28:34.837Z,22.42
2022-12-08T01:31:01.912Z,19.90
2022-12-08T01:33:28.981Z,21.23
2022-12-08T01:35:55.890Z,22.58
2022-12-08T01:38:22.982Z,23.15
2022-12-08T01:40:49.707Z,23.92
2022-12-08T01:43:18.513Z,20.30
2022-12-08T01:45:45.377Z,19.77
2022-12-08T01:48:17.582Z,22.73
2022-12-08T01:50:44.237Z,21.48
2022-12-08T01:53:13.533Z,22.02
2022-12-08T01:55:56.306Z,23.00
2022-12-08T01:58:29.056Z,21.63
2022-12-08T02:00:55.829Z,21.25
2022-12-08T02:03:35.585Z,20.98
2022-12-08T02:06:03.095Z,23.13
2022-12-08T02:08:30.940Z,21.63
2022-12-08T02:10:57.453Z,20.92
2022-12-08T02:13:27.286Z,20.48
2022-12-08T02:16:12.660Z,20.60
2022-12-08T02:18:50.489Z,23.48
2022-12-08T02:21:35.581Z,22.63
2022-12-08T02:24:39.942Z,20.35
2022-12-08T02:27:43.951Z,24.42
2022-12-08T02:30:43.782Z,20.23
2022-12-08T02:33:35.215Z,21.75
2022-12-08T02:36:04.945Z,20.92
2022-12-08T02:39:07.290Z,21.63
2022-12-08T02:41:39.866Z,21.88
2022-12-08T02:44:13.021Z,21.23
2022-12-08T02:46:50.824Z,22.88
2022-12-08T02:49:17.451Z,23.98
2022-12-08T02:51:44.014Z,24.23
2022-12-08T02:54:10.772Z,21.65
2022-12-08T02:57:02.734Z,20.33
2022-12-08T02:59:38.407Z,21.02
2022-12-08T03:02:09.222Z,19.10
2022-12-08T03:05:11.105Z,22.60
2022-12-08T03:07:45.882Z,25.65
2022-12-08T03:10:28.138Z,22.58
2022-12-08T03:13:14.569Z,21.88
2022-12-08T03:15:42.878Z,19.92
2022-12-08T03:18:11.323Z,21.83
2022-12-08T03:20:38.746Z,20.23
2022-12-08T03:23:08.729Z,22.20
2022-12-08T03:25:39.356Z,22.40
2022-12-08T03:28:06.102Z,20.58
2022-12-08T03:30:37.169Z,23.20
2022-12-08T03:33:30.665Z,21.42
2022-12-08T03:35:59.028Z,23.70
2022-12-08T03:38:25.526Z,20.08
2022-12-08T03:40:52.740Z,20.95
2022-12-08T03:43:19.398Z,20.35
2022-12-08T03:45:45.881Z,20.75
2022-12-08T03:48:12.390Z,21.40
2022-12-08T03:50:38.952Z,21.70
2022-12-08T03:53:06.126Z,22.75
2022-12-08T03:55:32.622Z,21.20
2022-12-08T03:57:59.100Z,20.27
2022-12-08T04:00:25.974Z,21.60
2022-12-08T04:02:52.544Z,20.02
2022-12-08T04:05:19.173Z,19.23
2022-12-08T04:07:45.735Z,22.42
2022-12-08T04:10:12.593Z,21.58
2022-12-08T04:12:46.093Z,22.13
2022-12-08T04:15:12.910Z,20.90
2022-12-08T04:17:55.756Z,23.40
2022-12-08T04:20:22.249Z,21.35
2022-12-08T04:22:49.004Z,23.58
2022-12-08T04:25:15.782Z,19.58
2022-12-08T04:27:42.337Z,20.50
2022-12-08T04:30:09.309Z,20.73
2022-12-08T04:32:35.881Z,22.38
2022-12-08T04:35:02.475Z,21.38
2022-12-08T04:37:29.137Z,22.48
2022-12-08T04:39:55.908Z,22.15
2022-12-08T04:42:22.497Z,23.27
2022-12-08T04:44:49.013Z,20.92
2022-12-08T04:47:15.675Z,21.98
2022-12-08T04:49:42.242Z,19.85
2022-12-08T04:52:08.749Z,23.58
2022-12-08T04:54:35.286Z,25.17
2022-12-08T04:57:01.804Z,22.33
2022-12-08T04:59:28.309Z,21.05
2022-12-08T05:01:55.069Z,20.80
2022-12-08T05:04:22.121Z,26.80
2022-12-08T05:06:48.638Z,18.77
2022-12-08T05:09:15.115Z,24.08
2022-12-08T05:11:45.399Z,20.40
2022-12-08T05:14:16.629Z,21.52
2022-12-08T05:16:43.480Z,23.45
2022-12-08T05:19:10.311Z,22.35
2022-12-08T05:21:36.846Z,24.40
2022-12-08T05:24:03.566Z,21.75
2022-12-08T05:26:30.119Z,26.23
2022-12-08T05:28:56.796Z,24.70
2022-12-08T05:31:23.613Z,25.30
2022-12-08T05:33:51.543Z,26.02
2022-12-08T05:36:18.281Z,26.92
2022-12-08T05:38:45.661Z,23.60
2022-12-08T05:41:15.714Z,26.90
2022-12-08T05:43:42.324Z,24.40
2022-12-08T05:46:09.512Z,25.90
2022-12-08T05:48:36.281Z,25.65
2022-12-08T05:51:03.304Z,27.15
2022-12-08T05:53:30.317Z,22.83
2022-12-08T05:55:56.821Z,24.05
2022-12-08T05:58:23.743Z,24.05
2022-12-08T06:00:50.701Z,26.02
2022-12-08T06:03:18.591Z,23.55
2022-12-08T06:05:46.656Z,24.10
2022-12-08T06:08:15.478Z,25.80
2022-12-08T06:10:43.639Z,24.33
2022-12-08T06:13:10.683Z,20.60
2022-12-08T06:15:38.331Z,23.80
2022-12-08T06:18:05.767Z,21.33
2022-12-08T06:20:32.373Z,23.02
2022-12-08T06:22:58.861Z,22.98
2022-12-08T06:25:25.668Z,23.17
2022-12-08T06:27:52.269Z,23.90
2022-12-08T06:30:18.809Z,22.75
2022-12-08T06:32:45.886Z,21.10
2022-12-08T06:35:12.569Z,19.77
2022-12-08T06:37:39.104Z,22.70
2022-12-08T06:40:08.525Z,21.30
2022-12-08T06:42:35.021Z,19.45
2022-12-08T06:45:02.086Z,20.10
2022-12-08T06:47:28.975Z,20.23
2022-12-08T06:49:55.434Z,20.67
2022-12-08T06:52:22.445Z,19.23
2022-12-08T06:54:49.123Z,19.42
2022-12-08T06:57:15.687Z,20.77
2022-12-08T06:59:42.250Z,19.05
2022-12-08T07:02:09.793Z,21.05
2022-12-08T07:04:36.655Z,20.02
2022-12-08T07:07:03.332Z,20.02
2022-12-08T07:09:30.019Z,21.95
2022-12-08T07:11:56.512Z,20.70
2022-12-08T07:14:23.572Z,20.10
2022-12-08T07:16:51.562Z,18.92
2022-12-08T07:19:18.783Z,18.33
2022-12-08T07:21:45.521Z,21.50
2022-12-08T07:24:12.655Z,18.98
2022-12-08T07:26:39.407Z,22.20
2022-12-08T07:29:09.893Z,22.23
2022-12-08T07:31:36.849Z,19.35
2022-12-08T07:34:03.366Z,22.70
2022-12-08T07:36:30.041Z,22.25
2022-12-08T07:38:58.400Z,24.90
2022-12-08T07:41:26.147Z,24.90
2022-12-08T07:43:53.694Z,17.13
2022-12-08T07:46:22.038Z,20.05
2022-12-08T07:48:48.622Z,16.23
2022-12-08T07:51:16.046Z,22.05
2022-12-08T07:53:49.860Z,17.80
2022-12-08T07:56:18.537Z,18.67
2022-12-08T07:58:45.111Z,21.27
2022-12-08T08:01:26.016Z,17.77
2022-12-08T08:03:53.243Z,18.38
2022-12-08T08:06:19.845Z,20.25
2022-12-08T08:08:46.410Z,21.88
2022-12-08T08:11:20.942Z,20.27
2022-12-08T08:13:48.003Z,18.35
2022-12-08T08:16:14.762Z,22.75
2022-12-08T08:18:44.069Z,20.42
2022-12-08T08:23:57.201Z,21.13
2022-12-08T08:26:23.725Z,18.15
2022-12-08T08:28:50.282Z,18.65
2022-12-08T08:31:17.061Z,18.02
2022-12-08T08:33:43.644Z,19.08
2022-12-08T08:36:10.571Z,20.05
2022-12-08T08:38:37.449Z,18.08
2022-12-08T08:41:08.313Z,21.42
2022-12-08T08:43:38.316Z,19.48
2022-12-08T08:46:06.417Z,17.10
2022-12-08T08:48:33.385Z,18.45
2022-12-08T08:51:08.069Z,19.73
2022-12-08T08:53:36.861Z,17.50
2022-12-08T08:56:03.443Z,19.33
2022-12-08T08:58:29.982Z,16.98
2022-12-08T09:00:56.511Z,16.00
2022-12-08T09:03:23.132Z,19.40
2022-12-08T09:05:50.838Z,19.48
2022-12-08T09:08:17.613Z,16.45
2022-12-08T09:10:44.453Z,15.52
2022-12-08T09:13:12.477Z,13.65
2022-12-08T09:15:39.239Z,15.88
2022-12-08T09:18:06.191Z,15.95
2022-12-08T09:20:33.815Z,15.48
2022-12-08T09:23:00.306Z,12.30
2022-12-08T09:25:26.853Z,12.73
2022-12-08T09:27:53.355Z,12.27
2022-12-08T09:30:19.883Z,13.07
2022-12-08T09:32:47.062Z,17.02
2022-12-08T09:35:13.627Z,14.75
2022-12-08T09:37:42.695Z,13.80
2022-12-08T09:40:13.742Z,14.38
2022-12-08T09:42:49.768Z,14.05
2022-12-08T09:45:16.697Z,13.55
2022-12-08T09:47:53.022Z,18.33
2022-12-08T09:50:26.430Z,18.05
2022-12-08T09:53:06.554Z,21.08
2022-12-08T09:55:56.712Z,17.88
2022-12-08T09:59:01.548Z,19.38
2022-12-08T10:01:31.249Z,14.48
2022-12-08T10:03:58.227Z,15.55
2022-12-08T10:06:32.674Z,16.92
2022-12-08T10:09:11.122Z,19.00
2022-12-08T10:12:09.146Z,17.77
2022-12-08T10:14:41.961Z,16.55
2022-12-08T10:17:23.174Z,20.95
2022-12-08T10:19:51.762Z,19.05
2022-12-08T10:22:27.568Z,22.67
2022-12-08T10:25:09.600Z,20.42
2022-12-08T10:27:36.819Z,19.17
2022-12-08T10:30:11.661Z,18.52
2022-12-08T10:32:38.291Z,18.70
2022-12-08T10:35:10.828Z,19.05
2022-12-08T10:37:37.877Z,20.83
2022-12-08T10:40:13.315Z,21.63
2022-12-08T10:42:43.348Z,19.80
2022-12-08T10:45:09.914Z,21.13
2022-12-08T10:47:38.502Z,20.92
2022-12-08T10:50:15.875Z,18.45
2022-12-08T10:52:42.497Z,18.50
2022-12-08T10:55:20.316Z,22.13
2022-12-08T10:57:47.407Z,18.45
2022-12-08T11:00:16.664Z,19.52
2022-12-08T11:03:01.863Z,19.10
2022-12-08T11:05:35.181Z,19.63
2022-12-08T11:08:05.112Z,21.63
2022-12-08T11:10:37.971Z,17.45
2022-12-08T11:13:06.475Z,18.48
2022-12-08T11:15:38.515Z,20.42
2022-12-08T11:18:18.562Z,20.50
2022-12-08T11:20:45.093Z,18.70
2022-12-08T11:23:22.633Z,21.27
2022-12-08T11:25:49.675Z,21.35
2022-12-08T11:28:20.255Z,21.35
2022-12-08T11:30:52.699Z,21.65
2022-12-08T11:33:27.083Z,19.73
2022-12-08T11:36:07.704Z,21.83
2022-12-08T11:38:41.060Z,23.42
2022-12-08T11:41:16.628Z,21.23
2022-12-08T11:43:46.199Z,23.00
2022-12-08T11:46:20.077Z,21.30
2022-12-08T11:49:13.289Z,22.48
2022-12-08T11:52:01.965Z,22.55
2022-12-08T11:54:40.189Z,22.27
2022-12-08T11:57:12.307Z,23.08
2022-12-08T11:59:41.334Z,23.25
2022-12-08T12:02:15.971Z,23.30
2022-12-08T12:04:54.832Z,21.50
2022-12-08T12:07:46.348Z,24.35
2022-12-08T12:10:18.021Z,23.70
2022-12-08T12:13:12.529Z,20.23
2022-12-08T12:16:00.096Z,28.40
2022-12-08T12:18:39.865Z,20.67
2022-12-08T12:21:13.620Z,20.13
2022-12-08T12:23:46.729Z,27.00
2022-12-08T12:26:35.221Z,22.38
2022-12-08T12:29:06.979Z,22.13
2022-12-08T12:31:36.395Z,26.15
2022-12-08T12:34:15.503Z,22.58
2022-12-08T12:36:50.557Z,22.13
2022-12-08T12:39:20.183Z,21.50
2022-12-08T12:42:00.830Z,20.75
2022-12-08T12:44:33.419Z,22.98
2022-12-08T12:47:01.866Z,21.08
2022-12-08T12:49:40.723Z,23.98
2022-12-08T12:52:10.116Z,19.10
2022-12-08T12:54:36.711Z,21.33
2022-12-08T12:57:09.260Z,20.05
2022-12-08T12:59:41.541Z,21.70
2022-12-08T13:02:29.213Z,20.85
2022-12-08T13:05:04.006Z,20.63
2022-12-08T13:07:33.186Z,22.08
2022-12-08T13:10:40.614Z,20.70
2022-12-08T13:13:10.026Z,20.88
2022-12-08T13:15:39.270Z,20.15
2022-12-08T13:18:07.858Z,20.05
2022-12-08T13:20:42.211Z,18.30
2022-12-08T13:23:36.799Z,18.55
2022-12-08T13:26:19.075Z,17.63
2022-12-08T13:29:00.762Z,19.85
2022-12-08T13:31:39.207Z,20.80
2022-12-08T13:34:22.058Z,19.30
2022-12-08T13:37:19.011Z,20.40
2022-12-08T13:40:20.057Z,19.38
2022-12-08T13:43:01.791Z,17.20
2022-12-08T13:46:10.858Z,17.25
2022-12-08T13:57:32.838Z,18.15
2022-12-08T14:00:05.534Z,21.23
2022-12-08T14:02:47.334Z,19.25
2022-12-08T14:05:18.506Z,17.08
2022-12-08T14:07:48.392Z,16.45
2022-12-08T14:10:25.155Z,18.77
2022-12-08T14:13:00.193Z,17.23
2022-12-08T14:15:29.280Z,18.30
2022-12-08T14:17:59.156Z,16.75
2022-12-08T14:20:30.971Z,19.45
2022-12-08T14:22:58.441Z,18.55
2022-12-08T14:25:27.597Z,20.88
2022-12-08T14:28:02.588Z,19.17
2022-12-08T14:30:32.082Z,17.10
2022-12-08T14:33:00.136Z,19.80
2022-12-08T14:35:29.836Z,17.05
2022-12-08T14:37:59.273Z,18.10
2022-12-08T14:40:33.337Z,19.02
2022-12-08T14:43:08.870Z,17.33
2022-12-08T14:45:41.042Z,18.73
2022-12-08T14:48:27.495Z,18.00
2022-12-08T14:51:03.194Z,17.38
2022-12-08T14:53:39.435Z,18.67
2022-12-08T14:56:18.099Z,19.42
2022-12-08T14:58:45.112Z,17.42
2022-12-08T15:01:17.871Z,20.02
2022-12-08T15:03:50.728Z,16.80
2022-12-08T15:06:21.187Z,19.35
2022-12-08T15:08:58.063Z,19.13
2022-12-08T15:11:32.082Z,19.23
2022-12-08T15:13:58.654Z,18.58
2022-12-08T15:16:37.573Z,20.67
2022-12-08T15:19:19.537Z,18.45
2022-12-08T15:21:46.872Z,19.30
2022-12-08T15:24:14.433Z,18.05
2022-12-08T15:26:46.235Z,17.20
2022-12-08T15:29:19.067Z,18.80
2022-12-08T15:31:46.608Z,19.63
2022-12-08T15:34:13.264Z,19.58
2022-12-08T15:36:39.814Z,19.60
2022-12-08T15:39:16.936Z,18.85
2022-12-08T15:41:43.462Z,21.60
2022-12-08T15:44:09.979Z,17.67
2022-12-08T15:46:36.631Z,19.60
2022-12-08T15:49:03.236Z,19.70
2022-12-08T15:51:30.011Z,18.83
2022-12-08T15:53:56.536Z,20.17
2022-12-08T15:56:27.820Z,19.02
2022-12-08T15:58:56.824Z,18.42
2022-12-08T16:01:26.462Z,18.00
2022-12-08T16:09:45.330Z,20.85
2022-12-08T16:12:24.397Z,19.60
2022-12-08T16:17:38.673Z,20.85
2022-12-08T16:20:11.581Z,19.25
2022-12-08T16:22:59.676Z,19.75
2022-12-08T16:25:25.321Z,24.10
2022-12-08T16:28:17.326Z,20.35
2022-12-08T16:30:43.182Z,20.55
2022-12-08T16:33:11.710Z,20.45
2022-12-08T16:35:38.609Z,21.52
2022-12-08T16:38:05.107Z,21.63
2022-12-08T16:40:31.651Z,19.83
2022-12-08T16:42:58.453Z,19.67
2022-12-08T16:45:27.941Z,21.60
2022-12-08T16:47:56.725Z,21.25
2022-12-08T16:50:31.578Z,20.55
2022-12-08T16:53:06.775Z,23.42
2022-12-08T16:55:37.276Z,23.00
2022-12-08T17:00:32.024Z,35.97
2022-12-08T17:02:58.494Z,31.30
2022-12-08T17:05:27.520Z,27.63
2022-12-08T17:07:57.854Z,22.90
2022-12-08T17:10:28.395Z,22.45
2022-12-08T17:12:55.721Z,27.35
2022-12-08T17:15:25.120Z,21.90
2022-12-08T17:17:52.194Z,21.90
2022-12-08T17:20:21.600Z,22.45
2022-12-08T17:22:48.425Z,29.98
2022-12-08T17:25:15.511Z,24.92
2022-12-08T17:27:42.451Z,24.23
2022-12-08T17:30:10.974Z,25.65
2022-12-08T17:32:38.446Z,23.00
2022-12-08T17:35:05.969Z,24.48
2022-12-08T17:37:32.888Z,23.83
2022-12-08T17:39:59.426Z,26.00
2022-12-08T17:42:26.001Z,22.90
2022-12-08T17:44:53.336Z,22.23
2022-12-08T17:47:19.897Z,22.95
2022-12-08T17:49:46.484Z,23.17
2022-12-08T17:52:15.915Z,22.70
2022-12-08T17:54:42.429Z,25.70
2022-12-08T17:57:11.825Z,23.48
2022-12-08T17:59:38.476Z,29.30
2022-12-08T18:02:10.171Z,24.67
2022-12-08T18:04:36.759Z,22.40
2022-12-08T18:07:06.161Z,25.95
2022-12-08T18:09:32.765Z,25.75
2022-12-08T18:11:59.649Z,25.50
2022-12-08T18:14:26.383Z,22.55
2022-12-08T18:16:53.113Z,23.10
2022-12-08T18:19:19.690Z,24.98
2022-12-08T18:21:46.203Z,29.15
2022-12-08T18:24:17.935Z,22.42
2022-12-08T18:26:45.010Z,28.00
2022-12-08T18:29:20.234Z,25.98
2022-12-08T18:31:46.861Z,27.75
2022-12-08T18:34:13.423Z,27.35
2022-12-08T18:36:39.957Z,27.77
2022-12-08T18:39:10.811Z,26.85
2022-12-08T18:41:38.178Z,25.45
2022-12-08T18:44:04.817Z,27.15
2022-12-08T18:46:34.757Z,28.73
2022-12-08T18:49:01.337Z,23.67
2022-12-08T18:51:28.111Z,26.58
2022-12-08T18:53:54.682Z,24.40
2022-12-08T18:56:30.909Z,25.85
2022-12-08T18:59:03.698Z,22.85
2022-12-08T19:01:32.421Z,22.05
2022-12-08T19:06:50.299Z,22.27
2022-12-08T19:09:17.810Z,23.25
2022-12-08T19:11:44.428Z,22.20
2022-12-08T19:14:11.479Z,24.27
2022-12-08T19:16:38.165Z,24.13
2022-12-08T19:19:05.194Z,23.95
2022-12-08T19:21:32.293Z,26.98
2022-12-08T19:24:01.701Z,24.20
2022-12-08T19:26:28.469Z,24.27
2022-12-08T19:28:55.309Z,25.45
2022-12-08T19:31:22.056Z,23.50
2022-12-08T19:33:48.720Z,22.75
2022-12-08T19:36:18.498Z,21.58
2022-12-08T19:38:45.421Z,24.38
2022-12-08T19:41:12.087Z,22.00
2022-12-08T19:43:38.601Z,20.55
2022-12-08T19:46:05.794Z,21.33
2022-12-08T19:48:38.234Z,21.40
2022-12-08T19:51:05.491Z,25.20
2022-12-08T19:53:31.977Z,20.95
2022-12-08T19:55:58.654Z,27.02
2022-12-08T19:58:25.292Z,29.70
2022-12-08T20:00:51.851Z,27.73
2022-12-08T20:03:20.339Z,37.95
2022-12-08T20:05:51.400Z,46.22
2022-12-08T20:08:18.118Z,31.85
2022-12-08T20:10:45.078Z,30.90
2022-12-08T20:13:13.002Z,26.20
2022-12-08T20:15:47.617Z,26.27
2022-12-08T20:18:14.961Z,26.55
2022-12-08T20:20:43.115Z,36.42
2022-12-08T20:23:09.810Z,24.75
2022-12-08T20:25:44.429Z,39.22
2022-12-08T20:28:11.115Z,30.75
2022-12-08T20:30:42.102Z,30.00
2022-12-08T20:33:10.303Z,29.30
2022-12-08T20:35:37.035Z,28.40
2022-12-08T20:38:03.834Z,34.42
2022-12-08T20:40:30.418Z,30.55
2022-12-08T20:42:56.946Z,36.30
2022-12-08T20:45:23.519Z,33.08
2022-12-08T20:47:50.141Z,40.50
2022-12-08T20:50:16.691Z,35.53
2022-12-08T20:52:43.446Z,35.70
2022-12-08T20:55:10.942Z,33.35
2022-12-08T20:57:37.693Z,34.47
2022-12-08T21:00:06.681Z,30.42
2022-12-08T21:02:33.687Z,33.42
2022-12-08T21:05:00.632Z,37.47
2022-12-08T21:07:27.501Z,38.30
2022-12-08T21:09:54.168Z,30.63
2022-12-08T21:12:20.734Z,28.80
2022-12-08T21:14:47.228Z,27.77
2022-12-08T21:17:14.036Z,29.08
2022-12-08T21:19:41.509Z,25.67
2022-12-08T21:22:08.273Z,28.98
2022-12-08T21:24:35.154Z,29.60
2022-12-08T21:27:04.234Z,24.67
2022-12-08T21:29:31.597Z,26.77
2022-12-08T21:32:07.843Z,27.50
2022-12-08T21:34:34.632Z,26.48
2022-12-08T21:37:01.846Z,27.77
2022-12-08T21:39:28.522Z,22.60
2022-12-08T21:41:58.043Z,26.45
2022-12-08T21:44:24.775Z,26.83
2022-12-08T21:46:51.760Z,25.45
2022-12-08T21:49:18.683Z,30.88
2022-12-08T21:51:45.373Z,27.50
2022-12-08T21:54:18.438Z,26.88
2022-12-08T21:56:46.976Z,27.88
2022-12-08T21:59:13.554Z,28.50
2022-12-08T22:01:40.536Z,27.00
2022-12-08T22:04:07.489Z,24.75
2022-12-08T22:06:34.261Z,30.23
2022-12-08T22:09:00.892Z,27.70
2022-12-08T22:11:27.686Z,28.58
2022-12-08T22:13:54.515Z,28.10
2022-12-08T22:16:21.423Z,28.02
2022-12-08T22:18:48.751Z,27.75
2022-12-08T22:21:17.196Z,25.42
2022-12-08T22:23:44.448Z,24.55
2022-12-08T22:26:11.481Z,29.50
2022-12-08T22:28:42.953Z,31.48
2022-12-08T22:31:16.683Z,27.52
2022-12-08T22:33:43.700Z,28.35
2022-12-08T22:36:16.130Z,27.58
2022-12-08T22:38:42.730Z,24.90
2022-12-08T22:41:09.561Z,24.88
2022-12-08T22:43:36.343Z,27.08
2022-12-08T22:46:11.688Z,26.55
2022-12-08T22:48:38.933Z,26.58
2022-12-08T22:51:08.815Z,27.13
2022-12-08T22:53:38.118Z,28.98
2022-12-08T22:56:05.910Z,28.10
2022-12-08T22:58:33.014Z,29.52
2022-12-08T23:00:59.573Z,28.25
2022-12-08T23:03:26.129Z,30.23
2022-12-08T23:05:52.878Z,24.92
2022-12-08T23:08:19.990Z,32.78
2022-12-08T23:10:47.286Z,30.17
2022-12-08T23:13:14.354Z,30.05
2022-12-08T23:15:41.336Z,31.55
2022-12-08T23:18:08.694Z,32.45
2022-12-08T23:20:35.251Z,28.63
2022-12-08T23:23:01.819Z,29.40
2022-12-08T23:25:28.326Z,32.88
2022-12-08T23:27:54.862Z,29.25
2022-12-08T23:30:21.450Z,38.63
2022-12-08T23:32:48.076Z,33.47
2022-12-08T23:35:14.785Z,35.90
2022-12-08T23:37:41.416Z,31.95
2022-12-08T23:40:08.889Z,34.15
2022-12-08T23:42:35.697Z,31.67
2022-12-08T23:45:02.430Z,34.33
2022-12-08T23:47:30.277Z,33.22
2022-12-08T23:49:56.850Z,29.75
2022-12-08T23:52:23.983Z,32.08
2022-12-08T23:54:50.736Z,34.58
2022-12-08T23:57:17.334Z,36.30
2022-12-08T23:59:44.175Z,35.60
